Terminal Aerodrome Forecast
Issued by NWS

Home | Current Version | Previous Version | Text Only | Print | Product List | Glossary On
Versions: 1 2 3 4 5 6 7 8 9 10 11 12 13 14 15 16 17 18 19
000
FTUS42 KJAX 311700
TAFVQQ
TAF
KVQQ 311729Z 3118/0118 18003KT P6SM SCT060
     FM312100 14007KT P6SM BKN060
     FM010100 00000KT P6SM FEW015 SCT070
     FM011500 20003KT P6SM BKN070=

USA.gov is the U.S. government's official web portal to all federal, state and local government web resources and services.